Terminal Aerodrome Forecast
Issued by NWS

Home | Current Version | Previous Version | Text Only | Print | Product List | Glossary On
Versions: 1 2 3 4 5 6 7 8 9 10 11 12 13 14
000
FTUS42 KMLB 011720
TAFISM
TAF
KISM 011720Z 0118/0218 15010KT P6SM BKN040 BKN250
     FM012100 11013KT P6SM SCT040 BKN250
     FM020300 14004KT P6SM SCT250
     FM021400 17010KT P6SM FEW040 SCT250=

USA.gov is the U.S. government's official web portal to all federal, state and local government web resources and services.